Lionshead Lake, New Jersey
Current Conditions -  °F | °C
As of 6:53 AM on Wednesday 28 Jan 2015 (Local Time) from KCDW Reporting Station
Clear Clear  
Wind Chill:   Ceiling: Unl
Heat Index: 16°   Visibility: 10mi
Dew Point: -5°   Wind: 5mph
Humidity: 39%   Direction: NA
Pressure: 30"   Gusts: NA
Location:  40.9484°N, 74.2449°W
Report Text: KCDW 281153Z AUTO VRB04KT 10SM CLR M09/M21 A3000 RMK AO2 SLP169 T10891206 11089 21100 53023 TSNO
Loading
Personal Weather Stations






























Interactive Weather Map New forecast layout! Learn more

10-Day Weather Forecast

Advertisements
Track Severe Weather on mobile